Terminal Aerodrome Forecast
Issued by NWS

Home | Current Version | Previous Version | Graphics & Text | Print | Product List | Glossary On
Versions: 1 2 3 4 5 6 7 8 9 10 11 12 13 14 15 16 17 18 19 20 21 22 23 24 25 26 27 28 29 30 31 32 33 34 35 36 37 38 39 40 41
000
FTUS43 KGRB 011600 AAD
TAFRHI
TAF AMD
KRHI 011640Z 0117/0212 23009KT 3SM -SN OVC015
      TEMPO 0117/0120 1 1/2SM -SN
     FM012100 26010G17KT P6SM SCT015 BKN020
     FM020100 28010G17KT P6SM SCT025
     FM020800 30006KT P6SM SKC=

USA.gov is the U.S. government's official web portal to all federal, state and local government web resources and services.